DJ3MD DBBB-DXXX
Flight info
| Callsign | DJ3MD |
|---|---|
| Flight time | 0h 46m |
| Altitude | 6000 |
| Route | TYE L433 MONOS MONOS1B |
| Aircraft | C152/L-SFG/C |
Departure
| Time | 2026-04-26 12:03 |
|---|---|
| Airport | Cotonou Cadjehoun International Airport (DBBB) |
Arrival
| Time | 2026-04-26 12:50 |
|---|---|
| Airport | Lomé–Tokoin International Airport (DXXX) |
| Time | Latitude | Longitude | Altitude | Speed | Heading |
|---|---|---|---|---|---|
| 2026-04-26 11:50 | 6.35363 | 2.38300 | 24 ft | 0 kts | 288° |
| 2026-04-26 12:01 | 6.35390 | 2.38291 | 23 ft | 6 kts | 37° |
| 2026-04-26 12:01 | 6.35421 | 2.38331 | 24 ft | 7 kts | 53° |
| 2026-04-26 12:01 | 6.35456 | 2.38377 | 24 ft | 8 kts | 49° |
| 2026-04-26 12:02 | 6.35497 | 2.38417 | 24 ft | 7 kts | 19° |
| 2026-04-26 12:02 | 6.35538 | 2.38410 | 22 ft | 10 kts | 332° |
| 2026-04-26 12:02 | 6.35630 | 2.38367 | 19 ft | 9 kts | 301° |
| 2026-04-26 12:02 | 6.35563 | 2.38248 | 19 ft | 41 kts | 234° |
| 2026-04-26 12:03 | 6.35299 | 2.37873 | 68 ft | 72 kts | 235° |
| 2026-04-26 12:03 | 6.35056 | 2.37477 | 237 ft | 72 kts | 233° |
| 2026-04-26 12:03 | 6.34932 | 2.37000 | 381 ft | 81 kts | 274° |
| 2026-04-26 12:03 | 6.34992 | 2.36438 | 622 ft | 73 kts | 269° |
| 2026-04-26 12:04 | 6.34987 | 2.35899 | 801 ft | 74 kts | 258° |
| 2026-04-26 12:04 | 6.34912 | 2.35544 | 888 ft | 79 kts | 250° |
| 2026-04-26 12:04 | 6.34825 | 2.34947 | 1013 ft | 89 kts | 263° |
| 2026-04-26 12:04 | 6.34867 | 2.34091 | 1219 ft | 93 kts | 274° |
| 2026-04-26 12:05 | 6.34934 | 2.33391 | 1287 ft | 102 kts | 270° |
| 2026-04-26 12:05 | 6.34981 | 2.32905 | 1374 ft | 102 kts | 275° |
| 2026-04-26 12:05 | 6.35094 | 2.31873 | 1341 ft | 114 kts | 269° |
| 2026-04-26 12:05 | 6.35005 | 2.31175 | 1557 ft | 90 kts | 244° |
| 2026-04-26 12:06 | 6.34759 | 2.30701 | 1814 ft | 74 kts | 228° |
| 2026-04-26 12:06 | 6.34729 | 2.30053 | 1651 ft | 117 kts | 297° |
| 2026-04-26 12:06 | 6.35245 | 2.29368 | 1658 ft | 116 kts | 303° |
| 2026-04-26 12:06 | 6.35563 | 2.28713 | 1909 ft | 98 kts | 285° |
| 2026-04-26 12:07 | 6.35806 | 2.28052 | 2003 ft | 101 kts | 289° |
| 2026-04-26 12:07 | 6.36093 | 2.27388 | 2167 ft | 95 kts | 293° |
| 2026-04-26 12:07 | 6.36279 | 2.26994 | 2244 ft | 96 kts | 290° |
| 2026-04-26 12:07 | 6.36457 | 2.26063 | 2404 ft | 95 kts | 274° |
| 2026-04-26 12:08 | 6.36544 | 2.25362 | 2449 ft | 102 kts | 274° |
| 2026-04-26 12:08 | 6.36602 | 2.24867 | 2460 ft | 108 kts | 275° |
| 2026-04-26 12:08 | 6.36675 | 2.24112 | 2591 ft | 101 kts | 265° |
| 2026-04-26 12:08 | 6.36648 | 2.23031 | 2496 ft | 114 kts | 266° |
| 2026-04-26 12:09 | 6.36637 | 2.22503 | 2508 ft | 110 kts | 264° |
| 2026-04-26 12:09 | 6.36466 | 2.21436 | 2422 ft | 113 kts | 259° |
| 2026-04-26 12:09 | 6.36384 | 2.20607 | 2363 ft | 115 kts | 261° |
| 2026-04-26 12:09 | 6.36257 | 2.19770 | 2276 ft | 114 kts | 251° |
| 2026-04-26 12:10 | 6.36077 | 2.19280 | 2222 ft | 113 kts | 240° |
| 2026-04-26 12:10 | 6.35628 | 2.18689 | 2148 ft | 110 kts | 222° |
| 2026-04-26 12:10 | 6.35163 | 2.17679 | 2031 ft | 118 kts | 257° |
| 2026-04-26 12:10 | 6.35170 | 2.16903 | 2003 ft | 116 kts | 275° |
| 2026-04-26 12:11 | 6.35339 | 2.16084 | 2006 ft | 111 kts | 277° |
| 2026-04-26 12:11 | 6.35408 | 2.15539 | 2017 ft | 110 kts | 272° |
| 2026-04-26 12:11 | 6.35424 | 2.14558 | 2153 ft | 99 kts | 259° |
| 2026-04-26 12:11 | 6.35290 | 2.13830 | 2135 ft | 100 kts | 245° |
| 2026-04-26 12:12 | 6.34969 | 2.13192 | 2157 ft | 97 kts | 238° |
| 2026-04-26 12:12 | 6.34703 | 2.12538 | 2156 ft | 100 kts | 253° |
| 2026-04-26 12:12 | 6.34679 | 2.11865 | 2140 ft | 106 kts | 272° |
| 2026-04-26 12:12 | 6.34690 | 2.11345 | 2148 ft | 102 kts | 262° |
| 2026-04-26 12:13 | 6.34473 | 2.10378 | 2165 ft | 100 kts | 246° |
| 2026-04-26 12:13 | 6.34159 | 2.09742 | 2197 ft | 95 kts | 230° |
| 2026-04-26 12:13 | 6.33694 | 2.09261 | 2175 ft | 96 kts | 214° |
| 2026-04-26 12:13 | 6.33221 | 2.08728 | 2148 ft | 104 kts | 239° |
| 2026-04-26 12:14 | 6.32996 | 2.07969 | 2020 ft | 114 kts | 253° |
| 2026-04-26 12:14 | 6.32796 | 2.07166 | 1973 ft | 114 kts | 252° |
| 2026-04-26 12:14 | 6.32655 | 2.06601 | 1866 ft | 119 kts | 252° |
| 2026-04-26 12:14 | 6.32416 | 2.05543 | 1856 ft | 111 kts | 252° |
| 2026-04-26 12:15 | 6.32138 | 2.04741 | 1747 ft | 114 kts | 242° |
| 2026-04-26 12:15 | 6.31927 | 2.03924 | 1630 ft | 121 kts | 260° |
| 2026-04-26 12:15 | 6.31868 | 2.03110 | 1713 ft | 104 kts | 261° |
| 2026-04-26 12:15 | 6.31788 | 2.02333 | 1726 ft | 103 kts | 260° |
| 2026-04-26 12:16 | 6.31719 | 2.01606 | 1829 ft | 95 kts | 261° |
| 2026-04-26 12:16 | 6.31606 | 2.00924 | 1793 ft | 97 kts | 246° |
| 2026-04-26 12:16 | 6.31432 | 2.00260 | 1785 ft | 101 kts | 262° |
| 2026-04-26 12:16 | 6.31380 | 1.99500 | 1752 ft | 103 kts | 259° |
| 2026-04-26 12:17 | 6.31234 | 1.98769 | 1693 ft | 106 kts | 253° |
| 2026-04-26 12:17 | 6.31109 | 1.98293 | 1822 ft | 90 kts | 245° |
| 2026-04-26 12:17 | 6.30758 | 1.97377 | 1699 ft | 102 kts | 250° |
| 2026-04-26 12:17 | 6.30626 | 1.96640 | 1593 ft | 110 kts | 256° |
| 2026-04-26 12:18 | 6.30493 | 1.95798 | 1421 ft | 118 kts | 260° |
| 2026-04-26 12:18 | 6.30443 | 1.95236 | 1365 ft | 110 kts | 263° |
| 2026-04-26 12:18 | 6.30382 | 1.94462 | 1194 ft | 107 kts | 262° |
| 2026-04-26 12:18 | 6.30270 | 1.93472 | 1052 ft | 98 kts | 257° |
| 2026-04-26 12:19 | 6.30144 | 1.92831 | 1042 ft | 88 kts | 252° |
| 2026-04-26 12:19 | 6.29986 | 1.92235 | 977 ft | 87 kts | 250° |
| 2026-04-26 12:19 | 6.29858 | 1.91671 | 952 ft | 81 kts | 251° |
| 2026-04-26 12:19 | 6.29724 | 1.91117 | 889 ft | 80 kts | 251° |
| 2026-04-26 12:20 | 6.29661 | 1.90533 | 823 ft | 78 kts | 263° |
| 2026-04-26 12:20 | 6.29632 | 1.90009 | 772 ft | 73 kts | 263° |
| 2026-04-26 12:20 | 6.29529 | 1.89561 | 752 ft | 59 kts | 249° |
| 2026-04-26 12:20 | 6.29434 | 1.89134 | 767 ft | 66 kts | 271° |
| 2026-04-26 12:21 | 6.29470 | 1.88690 | 915 ft | 63 kts | 267° |
| 2026-04-26 12:21 | 6.29558 | 1.88207 | 1052 ft | 64 kts | 281° |
| 2026-04-26 12:21 | 6.29588 | 1.87692 | 1184 ft | 69 kts | 264° |
| 2026-04-26 12:21 | 6.29504 | 1.87224 | 1308 ft | 69 kts | 246° |
| 2026-04-26 12:22 | 6.29438 | 1.86578 | 1308 ft | 93 kts | 257° |
| 2026-04-26 12:22 | 6.29354 | 1.86111 | 1361 ft | 97 kts | 258° |
| 2026-04-26 12:22 | 6.29188 | 1.85096 | 1346 ft | 110 kts | 259° |
| 2026-04-26 12:22 | 6.29121 | 1.84594 | 1549 ft | 94 kts | 256° |
| 2026-04-26 12:23 | 6.28893 | 1.83596 | 1592 ft | 105 kts | 242° |
| 2026-04-26 12:23 | 6.28658 | 1.83178 | 1714 ft | 98 kts | 241° |
| 2026-04-26 12:23 | 6.28367 | 1.82070 | 1392 ft | 133 kts | 253° |
| 2026-04-26 12:23 | 6.28229 | 1.81424 | 1221 ft | 129 kts | 257° |
| 2026-04-26 12:24 | 6.28061 | 1.80273 | 844 ft | 118 kts | 260° |
| 2026-04-26 12:24 | 6.27958 | 1.79445 | 758 ft | 97 kts | 265° |
| 2026-04-26 12:24 | 6.28002 | 1.78770 | 753 ft | 87 kts | 269° |
| 2026-04-26 12:25 | 6.27946 | 1.77836 | 961 ft | 79 kts | 255° |
| 2026-04-26 12:25 | 6.27765 | 1.77116 | 1157 ft | 80 kts | 246° |
| 2026-04-26 12:25 | 6.27599 | 1.76579 | 1338 ft | 75 kts | 243° |
| 2026-04-26 12:25 | 6.27430 | 1.75994 | 1388 ft | 90 kts | 250° |
| 2026-04-26 12:26 | 6.27305 | 1.75568 | 1428 ft | 96 kts | 250° |
| 2026-04-26 12:26 | 6.27067 | 1.74757 | 1598 ft | 93 kts | 248° |
| 2026-04-26 12:26 | 6.26887 | 1.74045 | 1572 ft | 108 kts | 255° |
| 2026-04-26 12:26 | 6.26839 | 1.73297 | 1706 ft | 105 kts | 268° |
| 2026-04-26 12:27 | 6.26773 | 1.72507 | 1810 ft | 99 kts | 267° |
| 2026-04-26 12:27 | 6.26748 | 1.71783 | 1860 ft | 105 kts | 262° |
| 2026-04-26 12:27 | 6.26647 | 1.71029 | 1951 ft | 104 kts | 256° |
| 2026-04-26 12:27 | 6.26480 | 1.70285 | 1949 ft | 111 kts | 252° |
| 2026-04-26 12:28 | 6.26281 | 1.69525 | 1933 ft | 107 kts | 247° |
| 2026-04-26 12:28 | 6.26065 | 1.68786 | 1735 ft | 115 kts | 249° |
| 2026-04-26 12:28 | 6.25862 | 1.68056 | 1830 ft | 93 kts | 251° |
| 2026-04-26 12:28 | 6.25759 | 1.67430 | 1933 ft | 81 kts | 257° |
| 2026-04-26 12:29 | 6.25649 | 1.66868 | 1882 ft | 89 kts | 253° |
| 2026-04-26 12:29 | 6.25561 | 1.66437 | 1894 ft | 87 kts | 256° |
| 2026-04-26 12:29 | 6.25299 | 1.64809 | 1804 ft | 96 kts | 250° |
| 2026-04-26 12:30 | 6.25175 | 1.64358 | 1834 ft | 97 kts | 256° |
| 2026-04-26 12:30 | 6.25718 | 1.63455 | 1586 ft | 119 kts | 321° |
| 2026-04-26 12:30 | 6.26306 | 1.62994 | 1766 ft | 100 kts | 320° |
| 2026-04-26 12:31 | 6.27105 | 1.61753 | 1690 ft | 108 kts | 286° |
| 2026-04-26 12:31 | 6.27414 | 1.61015 | 1585 ft | 116 kts | 298° |
| 2026-04-26 12:31 | 6.27975 | 1.60382 | 1490 ft | 118 kts | 326° |
| 2026-04-26 12:31 | 6.28848 | 1.60137 | 1300 ft | 123 kts | 359° |
| 2026-04-26 12:32 | 6.29440 | 1.60151 | 1357 ft | 109 kts | 8° |
| 2026-04-26 12:32 | 6.30465 | 1.60258 | 1379 ft | 95 kts | 11° |
| 2026-04-26 12:32 | 6.31945 | 1.60449 | 1443 ft | 105 kts | 7° |
| 2026-04-26 12:33 | 6.32502 | 1.60446 | 1390 ft | 113 kts | 356° |
| 2026-04-26 12:33 | 6.33222 | 1.59996 | 1319 ft | 112 kts | 306° |
| 2026-04-26 12:33 | 6.33476 | 1.59234 | 1242 ft | 107 kts | 274° |
| 2026-04-26 12:33 | 6.33547 | 1.58324 | 1384 ft | 94 kts | 270° |
| 2026-04-26 12:34 | 6.33558 | 1.57890 | 1453 ft | 90 kts | 264° |
| 2026-04-26 12:34 | 6.33560 | 1.57038 | 1614 ft | 90 kts | 266° |
| 2026-04-26 12:34 | 6.33538 | 1.56615 | 1691 ft | 91 kts | 257° |
| 2026-04-26 12:34 | 6.33452 | 1.55731 | 1782 ft | 101 kts | 256° |
| 2026-04-26 12:35 | 6.33341 | 1.55266 | 1944 ft | 90 kts | 248° |
| 2026-04-26 12:35 | 6.33077 | 1.54356 | 1957 ft | 102 kts | 253° |
| 2026-04-26 12:35 | 6.32998 | 1.53828 | 1818 ft | 118 kts | 260° |
| 2026-04-26 12:35 | 6.33150 | 1.52694 | 1699 ft | 124 kts | 301° |
| 2026-04-26 12:36 | 6.33518 | 1.52218 | 1659 ft | 121 kts | 312° |
| 2026-04-26 12:36 | 6.34157 | 1.51693 | 1722 ft | 114 kts | 332° |
| 2026-04-26 12:36 | 6.35238 | 1.51310 | 1761 ft | 109 kts | 353° |
| 2026-04-26 12:36 | 6.35881 | 1.51090 | 2006 ft | 87 kts | 331° |
| 2026-04-26 12:37 | 6.36433 | 1.50725 | 2107 ft | 87 kts | 319° |
| 2026-04-26 12:37 | 6.36932 | 1.50259 | 2188 ft | 88 kts | 314° |
| 2026-04-26 12:37 | 6.37386 | 1.49801 | 2272 ft | 88 kts | 319° |
| 2026-04-26 12:37 | 6.37835 | 1.49360 | 2417 ft | 81 kts | 308° |
| 2026-04-26 12:38 | 6.38109 | 1.49011 | 2357 ft | 97 kts | 305° |
| 2026-04-26 12:38 | 6.38624 | 1.48124 | 2337 ft | 101 kts | 298° |
| 2026-04-26 12:38 | 6.38971 | 1.47516 | 2407 ft | 99 kts | 297° |
| 2026-04-26 12:38 | 6.39265 | 1.46860 | 2445 ft | 100 kts | 287° |
| 2026-04-26 12:39 | 6.39435 | 1.46387 | 2445 ft | 104 kts | 290° |
| 2026-04-26 12:39 | 6.39653 | 1.45463 | 2549 ft | 96 kts | 270° |
| 2026-04-26 12:39 | 6.39692 | 1.44779 | 2483 ft | 110 kts | 271° |
| 2026-04-26 12:39 | 6.39652 | 1.44020 | 2482 ft | 109 kts | 261° |
| 2026-04-26 12:40 | 6.39465 | 1.43242 | 2364 ft | 116 kts | 243° |
| 2026-04-26 12:40 | 6.39025 | 1.42546 | 2208 ft | 122 kts | 231° |
| 2026-04-26 12:40 | 6.38493 | 1.41877 | 1949 ft | 122 kts | 225° |
| 2026-04-26 12:40 | 6.38103 | 1.41470 | 1750 ft | 120 kts | 222° |
| 2026-04-26 12:41 | 6.37340 | 1.40706 | 1374 ft | 114 kts | 224° |
| 2026-04-26 12:41 | 6.36799 | 1.40173 | 1274 ft | 100 kts | 220° |
| 2026-04-26 12:41 | 6.36284 | 1.39714 | 1188 ft | 95 kts | 216° |
| 2026-04-26 12:41 | 6.35751 | 1.39291 | 1097 ft | 94 kts | 215° |
| 2026-04-26 12:42 | 6.35285 | 1.38866 | 1182 ft | 92 kts | 218° |
| 2026-04-26 12:42 | 6.34926 | 1.38582 | 1278 ft | 89 kts | 214° |
| 2026-04-26 12:42 | 6.34218 | 1.38076 | 1404 ft | 94 kts | 212° |
| 2026-04-26 12:42 | 6.33850 | 1.37817 | 1440 ft | 97 kts | 208° |
| 2026-04-26 12:43 | 6.33014 | 1.37396 | 1509 ft | 100 kts | 192° |
| 2026-04-26 12:43 | 6.32547 | 1.37279 | 1564 ft | 100 kts | 189° |
| 2026-04-26 12:43 | 6.31623 | 1.36947 | 1543 ft | 111 kts | 206° |
| 2026-04-26 12:43 | 6.31192 | 1.36648 | 1496 ft | 117 kts | 215° |
| 2026-04-26 12:44 | 6.30344 | 1.35892 | 1451 ft | 118 kts | 216° |
| 2026-04-26 12:44 | 6.29919 | 1.35544 | 1469 ft | 116 kts | 216° |
| 2026-04-26 12:44 | 6.29063 | 1.34891 | 1505 ft | 112 kts | 210° |
| 2026-04-26 12:44 | 6.28641 | 1.34599 | 1532 ft | 111 kts | 212° |
| 2026-04-26 12:45 | 6.27982 | 1.34131 | 1542 ft | 113 kts | 212° |
| 2026-04-26 12:45 | 6.27347 | 1.33648 | 1537 ft | 115 kts | 216° |
| 2026-04-26 12:45 | 6.26738 | 1.33153 | 1536 ft | 105 kts | 214° |
| 2026-04-26 12:45 | 6.26178 | 1.32692 | 1495 ft | 100 kts | 215° |
| 2026-04-26 12:46 | 6.25458 | 1.32117 | 1452 ft | 97 kts | 215° |
| 2026-04-26 12:46 | 6.25104 | 1.31829 | 1412 ft | 99 kts | 214° |
| 2026-04-26 12:46 | 6.24505 | 1.31457 | 1315 ft | 101 kts | 203° |
| 2026-04-26 12:46 | 6.23850 | 1.31123 | 1209 ft | 105 kts | 208° |
| 2026-04-26 12:47 | 6.23266 | 1.30704 | 1209 ft | 99 kts | 213° |
| 2026-04-26 12:47 | 6.22527 | 1.30149 | 1165 ft | 100 kts | 214° |
| 2026-04-26 12:47 | 6.21974 | 1.29713 | 1130 ft | 95 kts | 214° |
| 2026-04-26 12:47 | 6.21465 | 1.29296 | 1056 ft | 95 kts | 215° |
| 2026-04-26 12:48 | 6.20936 | 1.28865 | 931 ft | 100 kts | 214° |
| 2026-04-26 12:48 | 6.20357 | 1.28421 | 802 ft | 103 kts | 214° |
| 2026-04-26 12:48 | 6.19784 | 1.27980 | 684 ft | 104 kts | 215° |
| 2026-04-26 12:48 | 6.19179 | 1.27478 | 513 ft | 107 kts | 215° |
| 2026-04-26 12:49 | 6.18552 | 1.26992 | 344 ft | 101 kts | 214° |
| 2026-04-26 12:49 | 6.18015 | 1.26568 | 202 ft | 94 kts | 215° |
| 2026-04-26 12:49 | 6.17496 | 1.26152 | 83 ft | 79 kts | 214° |
| 2026-04-26 12:49 | 6.17226 | 1.25942 | 62 ft | 61 kts | 205° |
| 2026-04-26 12:50 | 6.16914 | 1.25692 | 72 ft | 25 kts | 287° |
| 2026-04-26 12:50 | 6.16682 | 1.25522 | 72 ft | 61 kts | 216° |
| 2026-04-26 12:50 | 6.16660 | 1.25259 | 73 ft | 18 kts | 239° |
| 2026-04-26 12:50 | 6.16570 | 1.25182 | 73 ft | 24 kts | 216° |
| 2026-04-26 12:51 | 6.16496 | 1.25115 | 73 ft | 20 kts | 230° |
| 2026-04-26 12:51 | 6.16387 | 1.25032 | 70 ft | 17 kts | 218° |
| 2026-04-26 12:51 | 6.16263 | 1.24937 | 67 ft | 15 kts | 217° |
| 2026-04-26 12:51 | 6.16196 | 1.24875 | 68 ft | 11 kts | 215° |
| 2026-04-26 12:52 | 6.16172 | 1.24861 | 69 ft | 10 kts | 212° |
| 2026-04-26 12:52 | 6.16103 | 1.24813 | 71 ft | 7 kts | 214° |
| 2026-04-26 12:52 | 6.16064 | 1.24788 | 72 ft | 6 kts | 235° |
| 2026-04-26 12:52 | 6.16028 | 1.24723 | 73 ft | 7 kts | 304° |
| 2026-04-26 12:53 | 6.16058 | 1.24684 | 73 ft | 5 kts | 308° |
| 2026-04-26 12:53 | 6.16081 | 1.24658 | 73 ft | 4 kts | 327° |
| 2026-04-26 12:53 | 6.16101 | 1.24660 | 72 ft | 1 kts | 32° |
| 2026-04-26 12:53 | 6.16121 | 1.24674 | 72 ft | 0 kts | 45° |
| 2026-04-26 12:54 | 6.16120 | 1.24677 | 72 ft | 2 kts | 167° |
| 2026-04-26 12:54 | 6.16115 | 1.24678 | 72 ft | 0 kts | 165° |